Time;durP1;ratioP1;P1;durP2;ratioP2;P2;SDS_P1;SDS_P2;PMS_P1;PMS_P2;Temp;Humidity;BMP_temperature;BMP_pressure;BME280_temperature;BME280_humidity;BME280_pressure;Samples;Min_cycle;Max_cycle;Signal;HPM_P1;HPM_P2
2023/10/08 00:01:41;;;;;;;1999.90;999.90;;;;;;;;;;6211905;23;20103;-78
2023/10/08 00:04:11;;;;;;;1999.90;999.90;;;;;;;;;;6211411;23;20497;-80
2023/10/08 00:06:38;;;;;;;1999.90;999.90;;;;;;;;;;6211439;23;20027;-78
2023/10/08 00:09:08;;;;;;;1999.90;999.90;;;;;;;;;;6211334;23;20359;-78
2023/10/08 00:11:36;;;;;;;1999.90;999.90;;;;;;;;;;6211310;23;20016;-78
2023/10/08 00:14:05;;;;;;;1999.90;999.90;;;;;;;;;;6211375;23;20017;-79
2023/10/08 00:16:33;;;;;;;1999.90;999.90;;;;;;;;;;6211550;23;20044;-79
2023/10/08 00:19:07;;;;;;;1999.90;999.90;;;;;;;;;;6211332;23;20056;-80
2023/10/08 00:21:37;;;;;;;1999.90;999.90;;;;;;;;;;6211177;23;20408;-79
2023/10/08 00:24:06;;;;;;;1999.90;999.90;;;;;;;;;;6211435;23;20017;-79
2023/10/08 00:26:35;;;;;;;1999.90;999.90;;;;;;;;;;6210991;23;20467;-79
2023/10/08 00:29:06;;;;;;;1999.90;999.90;;;;;;;;;;6211457;23;20028;-79
2023/10/08 00:31:37;;;;;;;1999.90;999.90;;;;;;;;;;6211060;23;20386;-79
2023/10/08 00:34:05;;;;;;;1999.90;999.90;;;;;;;;;;6211211;23;20027;-78
2023/10/08 00:36:33;;;;;;;1999.90;999.90;;;;;;;;;;6211012;23;20490;-79
2023/10/08 00:39:08;;;;;;;1999.90;999.90;;;;;;;;;;6211510;23;20035;-78
2023/10/08 00:41:34;;;;;;;1999.90;999.90;;;;;;;;;;6210999;23;20029;-79
2023/10/08 00:44:01;;;;;;;1999.90;999.90;;;;;;;;;;6211750;23;20103;-79
2023/10/08 00:46:31;;;;;;;1999.90;999.90;;;;;;;;;;6210822;23;20526;-79
2023/10/08 00:48:58;;;;;;;1999.90;999.90;;;;;;;;;;6211305;23;20025;-79
2023/10/08 00:51:31;;;;;;;1999.90;999.90;;;;;;;;;;6211629;23;20020;-78
2023/10/08 00:54:05;;;;;;;1999.90;999.90;;;;;;;;;;6211227;23;20435;-79
2023/10/08 00:56:46;;;;;;;1999.90;999.90;;;;;;;;;;6210945;23;20439;-79
2023/10/08 00:59:15;;;;;;;1999.90;999.90;;;;;;;;;;6211223;23;20028;-78
2023/10/08 01:01:45;;;;;;;1999.90;999.90;;;;;;;;;;6211186;23;20052;-78
2023/10/08 01:04:16;;;;;;;1999.90;999.90;;;;;;;;;;6211003;23;20035;-79
2023/10/08 01:06:43;;;;;;;1999.90;999.90;;;;;;;;;;6210844;23;20043;-79
2023/10/08 01:09:18;;;;;;;1999.90;999.90;;;;;;;;;;6211339;23;20020;-80
2023/10/08 01:11:49;;;;;;;1999.90;999.90;;;;;;;;;;6210820;23;20021;-78
2023/10/08 01:14:18;;;;;;;1999.90;999.90;;;;;;;;;;6211309;23;20127;-78
2023/10/08 01:16:47;;;;;;;1999.90;999.90;;;;;;;;;;6210895;23;20025;-78
2023/10/08 01:19:20;;;;;;;1999.90;999.90;;;;;;;;;;6211086;23;20031;-79
2023/10/08 01:21:47;;;;;;;1999.90;999.90;;;;;;;;;;6211153;23;20063;-80
2023/10/08 01:24:17;;;;;;;1999.90;999.90;;;;;;;;;;6210880;23;20021;-78
2023/10/08 01:26:45;;;;;;;1999.90;999.90;;;;;;;;;;6210907;23;20027;-79
2023/10/08 01:29:19;;;;;;;1999.90;999.90;;;;;;;;;;6210771;23;20016;-78
2023/10/08 01:31:45;;;;;;;1999.90;999.90;;;;;;;;;;6210479;23;20028;-79
2023/10/08 01:34:15;;;;;;;1999.90;999.90;;;;;;;;;;6210861;23;20021;-78
2023/10/08 01:36:43;;;;;;;1999.90;999.90;;;;;;;;;;6210803;23;20051;-79
2023/10/08 01:39:15;;;;;;;1999.90;999.90;;;;;;;;;;6210778;23;20798;-78
2023/10/08 01:41:44;;;;;;;1999.90;999.90;;;;;;;;;;6210772;23;20021;-79
2023/10/08 01:44:10;;;;;;;1999.90;999.90;;;;;;;;;;6210495;23;20020;-81
2023/10/08 01:46:40;;;;;;;1999.90;999.90;;;;;;;;;;6210682;23;20099;-79
2023/10/08 01:49:13;;;;;;;1999.90;999.90;;;;;;;;;;6210728;23;20024;-79
2023/10/08 01:51:46;;;;;;;1999.90;999.90;;;;;;;;;;6210485;23;20316;-78
2023/10/08 01:54:17;;;;;;;1999.90;999.90;;;;;;;;;;6210118;23;20443;-79
2023/10/08 01:56:45;;;;;;;1999.90;999.90;;;;;;;;;;6210066;23;20025;-79
2023/10/08 01:59:13;;;;;;;1999.90;999.90;;;;;;;;;;6210797;23;20025;-79
2023/10/08 02:01:40;;;;;;;1999.90;999.90;;;;;;;;;;6210650;23;20025;-78
2023/10/08 02:04:08;;;;;;;1999.90;999.90;;;;;;;;;;6209532;23;20028;-79
2023/10/08 02:06:34;;;;;;;1999.90;999.90;;;;;;;;;;6210514;23;20032;-80
2023/10/08 02:09:07;;;;;;;1999.90;999.90;;;;;;;;;;6210511;23;20020;-79
2023/10/08 02:11:43;;;;;;;1999.90;999.90;;;;;;;;;;6210440;23;20020;-79
2023/10/08 02:14:11;;;;;;;1999.90;999.90;;;;;;;;;;6210575;23;20020;-79
2023/10/08 02:16:37;;;;;;;1999.90;999.90;;;;;;;;;;6210558;23;20020;-80
2023/10/08 02:19:04;;;;;;;1999.90;999.90;;;;;;;;;;6211257;23;20363;-79
2023/10/08 02:21:33;;;;;;;1999.90;999.90;;;;;;;;;;6212692;23;20020;-79
2023/10/08 02:23:59;;;;;;;1999.90;999.90;;;;;;;;;;6212451;23;20028;-79
2023/10/08 02:26:26;;;;;;;1999.90;999.90;;;;;;;;;;6212582;23;20023;-78
2023/10/08 02:28:53;;;;;;;1999.90;999.90;;;;;;;;;;6212025;23;20459;-78
2023/10/08 02:31:22;;;;;;;1999.90;999.90;;;;;;;;;;6212492;23;20333;-78
2023/10/08 02:33:49;;;;;;;1999.90;999.90;;;;;;;;;;6212754;23;20456;-79
2023/10/08 02:36:16;;;;;;;1999.90;999.90;;;;;;;;;;6212474;23;20021;-78
2023/10/08 02:38:42;;;;;;;1999.90;999.90;;;;;;;;;;6212510;23;20031;-79
2023/10/08 02:41:08;;;;;;;1999.90;999.90;;;;;;;;;;6212279;23;20021;-79
2023/10/08 02:43:36;;;;;;;1999.90;999.90;;;;;;;;;;6212211;23;20325;-78
2023/10/08 02:46:06;;;;;;;1999.90;999.90;;;;;;;;;;6212026;23;20020;-79
2023/10/08 02:48:35;;;;;;;1999.90;999.90;;;;;;;;;;6211857;23;20395;-78
2023/10/08 02:51:10;;;;;;;1999.90;999.90;;;;;;;;;;6212242;23;20087;-79
2023/10/08 02:53:37;;;;;;;1999.90;999.90;;;;;;;;;;6212296;23;20021;-79
2023/10/08 02:56:12;;;;;;;1999.90;999.90;;;;;;;;;;6212186;23;20127;-80
2023/10/08 02:58:38;;;;;;;1999.90;999.90;;;;;;;;;;6212400;23;20028;-78
2023/10/08 03:01:05;;;;;;;1999.90;999.90;;;;;;;;;;6211991;23;20044;-79
2023/10/08 03:03:32;;;;;;;1999.90;999.90;;;;;;;;;;6211507;23;20467;-80
2023/10/08 03:06:03;;;;;;;1999.90;999.90;;;;;;;;;;6212222;23;20455;-79
2023/10/08 03:08:31;;;;;;;1999.90;999.90;;;;;;;;;;6211647;23;20383;-79
2023/10/08 03:11:03;;;;;;;1999.90;999.90;;;;;;;;;;6212351;23;20031;-80
2023/10/08 03:13:30;;;;;;;1999.90;999.90;;;;;;;;;;6211566;23;20029;-79
2023/10/08 03:16:08;;;;;;;1999.90;999.90;;;;;;;;;;6212033;23;20020;-78
2023/10/08 03:18:36;;;;;;;1999.90;999.90;;;;;;;;;;6211974;23;20079;-79
2023/10/08 03:21:05;;;;;;;1999.90;999.90;;;;;;;;;;6211471;23;20032;-79
2023/10/08 03:23:34;;;;;;;1999.90;999.90;;;;;;;;;;6211894;23;20020;-79
2023/10/08 03:26:09;;;;;;;1999.90;999.90;;;;;;;;;;6211780;23;20020;-79
2023/10/08 03:28:36;;;;;;;1999.90;999.90;;;;;;;;;;6211633;23;20144;-79
2023/10/08 03:31:04;;;;;;;1999.90;999.90;;;;;;;;;;6211434;23;20339;-79
2023/10/08 03:33:34;;;;;;;1999.90;999.90;;;;;;;;;;6212027;23;20052;-80
2023/10/08 03:36:08;;;;;;;1999.90;999.90;;;;;;;;;;6211961;23;20020;-79
2023/10/08 03:38:49;;;;;;;1999.90;999.90;;;;;;;;;;6211977;23;20107;-79
2023/10/08 03:41:18;;;;;;;1999.90;999.90;;;;;;;;;;6211691;23;20016;-79
2023/10/08 03:43:52;;;;;;;1999.90;999.90;;;;;;;;;;6211759;23;20049;-78
2023/10/08 03:46:21;;;;;;;1999.90;999.90;;;;;;;;;;6211731;23;20017;-78
2023/10/08 03:48:51;;;;;;;1999.90;999.90;;;;;;;;;;6211981;23;20051;-78
2023/10/08 03:51:20;;;;;;;1999.90;999.90;;;;;;;;;;6211935;23;20028;-79
2023/10/08 03:54:15;;;;;;;1999.90;999.90;;;;;;;;;;6211909;23;20071;-79
2023/10/08 03:56:45;;;;;;;1999.90;999.90;;;;;;;;;;6212208;23;20107;-79
2023/10/08 03:59:14;;;;;;;1999.90;999.90;;;;;;;;;;6211316;23;20052;-79
2023/10/08 04:01:41;;;;;;;1999.90;999.90;;;;;;;;;;6211676;23;20266;-78
2023/10/08 04:04:12;;;;;;;1999.90;999.90;;;;;;;;;;6211057;23;20025;-79
2023/10/08 04:06:39;;;;;;;1999.90;999.90;;;;;;;;;;6212006;23;20048;-78
2023/10/08 04:09:16;;;;;;;1999.90;999.90;;;;;;;;;;6211659;23;20395;-78
2023/10/08 04:11:55;;;;;;;1999.90;999.90;;;;;;;;;;6211405;23;20028;-78
2023/10/08 04:14:23;;;;;;;1999.90;999.90;;;;;;;;;;6211446;23;20024;-79
2023/10/08 04:16:51;;;;;;;1999.90;999.90;;;;;;;;;;6211365;23;20025;-79
2023/10/08 04:19:18;;;;;;;1999.90;999.90;;;;;;;;;;6211537;23;20107;-78
2023/10/08 04:21:45;;;;;;;1999.90;999.90;;;;;;;;;;6211442;23;20016;-79
2023/10/08 04:24:14;;;;;;;1999.90;999.90;;;;;;;;;;6211360;23;20021;-80
2023/10/08 04:26:42;;;;;;;1999.90;999.90;;;;;;;;;;6211495;23;20463;-80
2023/10/08 04:29:09;;;;;;;1999.90;999.90;;;;;;;;;;6210829;23;20021;-79
2023/10/08 04:31:38;;;;;;;1999.90;999.90;;;;;;;;;;6211650;23;20021;-78
2023/10/08 04:34:15;;;;;;;1999.90;999.90;;;;;;;;;;6210770;23;20359;-79
2023/10/08 04:36:44;;;;;;;1999.90;999.90;;;;;;;;;;6211148;23;20087;-80
2023/10/08 04:39:15;;;;;;;1999.90;999.90;;;;;;;;;;6211288;23;20024;-78
2023/10/08 04:41:43;;;;;;;1999.90;999.90;;;;;;;;;;6210968;23;20031;-79
2023/10/08 04:44:14;;;;;;;1999.90;999.90;;;;;;;;;;6211102;23;20079;-78
2023/10/08 04:46:47;;;;;;;1999.90;999.90;;;;;;;;;;6211594;23;20021;-79
2023/10/08 04:49:26;;;;;;;1999.90;999.90;;;;;;;;;;6210628;23;20485;-79
2023/10/08 04:51:56;;;;;;;1999.90;999.90;;;;;;;;;;6210563;23;20017;-78
2023/10/08 04:54:29;;;;;;;1999.90;999.90;;;;;;;;;;6210906;23;20056;-80
2023/10/08 04:56:57;;;;;;;1999.90;999.90;;;;;;;;;;6211144;23;20039;-79
2023/10/08 04:59:32;;;;;;;1999.90;999.90;;;;;;;;;;6210631;23;20027;-79
2023/10/08 05:02:12;;;;;;;1999.90;999.90;;;;;;;;;;6210811;23;20028;-79
2023/10/08 05:04:55;;;;;;;1999.90;999.90;;;;;;;;;;6210391;23;20016;-79
2023/10/08 05:07:27;;;;;;;1999.90;999.90;;;;;;;;;;6210952;23;20027;-80
2023/10/08 05:10:11;;;;;;;1999.90;999.90;;;;;;;;;;6210832;23;20079;-80
2023/10/08 05:12:37;;;;;;;1999.90;999.90;;;;;;;;;;6211289;23;20048;-79
2023/10/08 05:15:33;;;;;;;1999.90;999.90;;;;;;;;;;6210962;23;20478;-79
2023/10/08 05:18:12;;;;;;;1999.90;999.90;;;;;;;;;;6210924;23;20024;-79
2023/10/08 05:20:59;;;;;;;1999.90;999.90;;;;;;;;;;6211034;23;20021;-79
2023/10/08 05:26:20;;;;;;;1999.90;999.90;;;;;;;;;;6210232;23;20027;-78
2023/10/08 05:28:47;;;;;;;1999.90;999.90;;;;;;;;;;6210690;23;20028;-79
2023/10/08 05:31:36;;;;;;;1999.90;999.90;;;;;;;;;;6210347;23;20411;-79
2023/10/08 05:34:14;;;;;;;1999.90;999.90;;;;;;;;;;6210783;23;20028;-79
2023/10/08 05:37:01;;;;;;;1999.90;999.90;;;;;;;;;;6210712;23;20052;-79
2023/10/08 05:39:40;;;;;;;1999.90;999.90;;;;;;;;;;6210827;23;20024;-79
2023/10/08 05:42:13;;;;;;;1999.90;999.90;;;;;;;;;;6210474;23;20024;-79
2023/10/08 05:44:40;;;;;;;1999.90;999.90;;;;;;;;;;6210279;23;20487;-78
2023/10/08 05:50:28;;;;;;;1999.90;999.90;;;;;;;;;;6210711;23;20031;-79
2023/10/08 05:52:50;;;;;;;1999.90;999.90;;;;;;;;;;6210635;23;20121;-79
2023/10/08 05:55:25;;;;;;;1999.90;999.90;;;;;;;;;;6211158;23;20458;-79
2023/10/08 05:58:02;;;;;;;1999.90;999.90;;;;;;;;;;6210697;23;20025;-79
2023/10/08 06:01:05;;;;;;;1999.90;999.90;;;;;;;;;;6211024;23;20402;-79
2023/10/08 06:03:36;;;;;;;1999.90;999.90;;;;;;;;;;6210372;23;20056;-79
2023/10/08 06:09:05;;;;;;;1999.90;999.90;;;;;;;;;;6210286;23;20264;-79
2023/10/08 06:11:41;;;;;;;1999.90;999.90;;;;;;;;;;6210249;23;20025;-79
2023/10/08 06:14:16;;;;;;;;;;;;;;;;;;6210502;23;20025;-79
2023/10/08 06:16:43;;;;;;;1999.90;999.90;;;;;;;;;;6210517;23;20334;-80
2023/10/08 06:19:10;;;;;;;1999.90;999.90;;;;;;;;;;6210296;23;20091;-79
2023/10/08 06:21:38;;;;;;;1999.90;999.90;;;;;;;;;;6211115;23;20320;-78
2023/10/08 06:24:08;;;;;;;1999.90;999.90;;;;;;;;;;6211216;23;20024;-78
2023/10/08 06:26:42;;;;;;;1999.90;999.90;;;;;;;;;;6211088;23;20028;-79
2023/10/08 06:29:18;;;;;;;1999.90;999.90;;;;;;;;;;6210253;23;20325;-80
2023/10/08 06:31:51;;;;;;;1999.90;999.90;;;;;;;;;;6210049;23;20063;-79
2023/10/08 06:34:21;;;;;;;1999.90;999.90;;;;;;;;;;6209390;23;20490;-80
2023/10/08 06:36:47;;;;;;;1999.90;999.90;;;;;;;;;;6209835;23;20025;-79
2023/10/08 06:39:18;;;;;;;1999.90;999.90;;;;;;;;;;6209969;23;20367;-79
2023/10/08 06:41:46;;;;;;;1999.90;999.90;;;;;;;;;;6209865;23;20347;-79
2023/10/08 06:44:15;;;;;;;1999.90;999.90;;;;;;;;;;6210421;23;20100;-79
2023/10/08 06:46:41;;;;;;;1999.90;999.90;;;;;;;;;;6210803;23;20027;-79
2023/10/08 06:49:12;;;;;;;1999.90;999.90;;;;;;;;;;6210045;23;20465;-79
2023/10/08 06:51:39;;;;;;;1999.90;999.90;;;;;;;;;;6210300;23;20020;-78
2023/10/08 06:54:10;;;;;;;1999.90;999.90;;;;;;;;;;6209948;23;20016;-79
2023/10/08 06:56:36;;;;;;;1999.90;999.90;;;;;;;;;;6210065;23;20021;-79
2023/10/08 06:59:03;;;;;;;1999.90;999.90;;;;;;;;;;6210201;23;20031;-80
2023/10/08 07:01:38;;;;;;;1999.90;999.90;;;;;;;;;;6210270;23;20020;-78
2023/10/08 07:04:06;;;;;;;1999.90;999.90;;;;;;;;;;6210719;23;20016;-79
2023/10/08 07:06:33;;;;;;;1999.90;999.90;;;;;;;;;;6212424;23;20279;-79
2023/10/08 07:09:04;;;;;;;1999.90;999.90;;;;;;;;;;6212337;23;20027;-81
2023/10/08 07:11:34;;;;;;;1999.90;999.90;;;;;;;;;;6212384;23;20052;-79
2023/10/08 07:14:03;;;;;;;1999.90;999.90;;;;;;;;;;6212138;23;20021;-80
2023/10/08 07:16:34;;;;;;;1999.90;999.90;;;;;;;;;;6211771;23;20091;-79
2023/10/08 07:19:17;;;;;;;1999.90;999.90;;;;;;;;;;6212274;23;20016;-80
2023/10/08 07:21:45;;;;;;;1999.90;999.90;;;;;;;;;;6211949;23;20020;-80
2023/10/08 07:24:15;;;;;;;1999.90;999.90;;;;;;;;;;6212393;23;20032;-80
2023/10/08 07:26:46;;;;;;;1999.90;999.90;;;;;;;;;;6212263;23;20095;-79
2023/10/08 07:29:17;;;;;;;1999.90;999.90;;;;;;;;;;6211858;23;20463;-80
2023/10/08 07:31:48;;;;;;;1999.90;999.90;;;;;;;;;;6212433;23;20074;-79
2023/10/08 07:34:18;;;;;;;1999.90;999.90;;;;;;;;;;6212269;23;20043;-81
2023/10/08 07:36:49;;;;;;;1999.90;999.90;;;;;;;;;;6212399;23;20017;-79
2023/10/08 07:39:25;;;;;;;1999.90;999.90;;;;;;;;;;6211884;23;20032;-79
2023/10/08 07:41:53;;;;;;;1999.90;999.90;;;;;;;;;;6212109;23;20529;-80
2023/10/08 07:44:21;;;;;;;1999.90;999.90;;;;;;;;;;6212155;23;20017;-79
2023/10/08 07:46:49;;;;;;;1999.90;999.90;;;;;;;;;;6212210;23;20500;-79
2023/10/08 07:49:16;;;;;;;1999.90;999.90;;;;;;;;;;6211576;23;20020;-79
2023/10/08 07:51:50;;;;;;;1999.90;999.90;;;;;;;;;;6211947;23;20087;-80
2023/10/08 07:54:19;;;;;;;1999.90;999.90;;;;;;;;;;6211903;23;20107;-81
2023/10/08 07:56:46;;;;;;;1999.90;999.90;;;;;;;;;;6212370;23;20021;-79
2023/10/08 07:59:14;;;;;;;1999.90;999.90;;;;;;;;;;6211989;23;20347;-80
2023/10/08 08:01:42;;;;;;;1999.90;999.90;;;;;;;;;;6211850;23;20021;-79
2023/10/08 08:04:10;;;;;;;1999.90;999.90;;;;;;;;;;6211651;23;20021;-79
2023/10/08 08:06:37;;;;;;;1999.90;999.90;;;;;;;;;;6212333;23;20021;-79
2023/10/08 08:09:08;;;;;;;1999.90;999.90;;;;;;;;;;6212126;23;20027;-78
2023/10/08 08:11:36;;;;;;;1999.90;999.90;;;;;;;;;;6215502;23;20021;-79
2023/10/08 08:14:07;;;;;;;1999.90;999.90;;;;;;;;;;6227721;23;20095;-79
2023/10/08 08:16:36;;;;;;;1999.90;999.90;;;;;;;;;;6224663;23;20075;-80
2023/10/08 08:19:02;;;;;;;1999.90;999.90;;;;;;;;;;6212041;23;20021;-79
2023/10/08 08:21:31;;;;;;;1999.90;999.90;;;;;;;;;;6212290;23;20017;-79
2023/10/08 08:24:04;;;;;;;1999.90;999.90;;;;;;;;;;6212025;23;20075;-79
2023/10/08 08:26:39;;;;;;;1999.90;999.90;;;;;;;;;;6211772;23;20059;-79
2023/10/08 08:29:08;;;;;;;1999.90;999.90;;;;;;;;;;6211374;23;20032;-79
2023/10/08 08:31:35;;;;;;;1999.90;999.90;;;;;;;;;;6211575;23;20513;-78
2023/10/08 08:34:08;;;;;;;1999.90;999.90;;;;;;;;;;6211570;23;20033;-79
2023/10/08 08:36:37;;;;;;;1999.90;999.90;;;;;;;;;;6210940;23;20027;-79
2023/10/08 08:39:04;;;;;;;1999.90;999.90;;;;;;;;;;6210990;23;20418;-79
2023/10/08 08:41:33;;;;;;;1999.90;999.90;;;;;;;;;;6211113;23;20135;-79
2023/10/08 08:44:00;;;;;;;1999.90;999.90;;;;;;;;;;6210492;23;20478;-78
2023/10/08 08:46:32;;;;;;;1999.90;999.90;;;;;;;;;;6210460;23;20016;-78
2023/10/08 08:49:01;;;;;;;1999.90;999.90;;;;;;;;;;6210572;23;20021;-79
2023/10/08 08:51:29;;;;;;;1999.90;999.90;;;;;;;;;;6210493;23;20021;-79
2023/10/08 08:53:59;;;;;;;1999.90;999.90;;;;;;;;;;6210612;23;20021;-78
2023/10/08 08:56:27;;;;;;;1999.90;999.90;;;;;;;;;;6210266;23;20544;-80
2023/10/08 08:58:54;;;;;;;1999.90;999.90;;;;;;;;;;6210448;23;20477;-79
2023/10/08 09:01:21;;;;;;;1999.90;999.90;;;;;;;;;;6210180;23;20272;-80
2023/10/08 09:03:50;;;;;;;1999.90;999.90;;;;;;;;;;6210611;23;20016;-80
2023/10/08 09:06:17;;;;;;;1999.90;999.90;;;;;;;;;;6210655;23;20025;-78
2023/10/08 09:08:45;;;;;;;1999.90;999.90;;;;;;;;;;6210325;23;20016;-80
2023/10/08 09:11:16;;;;;;;1999.90;999.90;;;;;;;;;;6209916;23;20510;-79
2023/10/08 09:13:43;;;;;;;1999.90;999.90;;;;;;;;;;6210414;23;20052;-78
2023/10/08 09:16:13;;;;;;;1999.90;999.90;;;;;;;;;;6210279;23;20052;-80
2023/10/08 09:18:42;;;;;;;1999.90;999.90;;;;;;;;;;6210194;23;20031;-80
2023/10/08 09:21:15;;;;;;;1999.90;999.90;;;;;;;;;;6209998;23;20043;-80
2023/10/08 09:23:47;;;;;;;1999.90;999.90;;;;;;;;;;6209828;23;20321;-81
2023/10/08 09:26:18;;;;;;;1999.90;999.90;;;;;;;;;;6209880;23;20031;-80
2023/10/08 09:28:48;;;;;;;1999.90;999.90;;;;;;;;;;6209816;23;20020;-79
2023/10/08 09:31:15;;;;;;;1999.90;999.90;;;;;;;;;;6209538;23;20529;-79
2023/10/08 09:33:41;;;;;;;1999.90;999.90;;;;;;;;;;6210020;23;20016;-80
2023/10/08 09:36:10;;;;;;;1999.90;999.90;;;;;;;;;;6210073;23;20042;-79
2023/10/08 09:38:37;;;;;;;1999.90;999.90;;;;;;;;;;6209945;23;20079;-80
2023/10/08 09:41:05;;;;;;;1999.90;999.90;;;;;;;;;;6210121;23;20086;-79
2023/10/08 09:43:34;;;;;;;1999.90;999.90;;;;;;;;;;6210334;23;20028;-79
2023/10/08 09:46:10;;;;;;;1999.90;999.90;;;;;;;;;;6210162;23;20020;-79
2023/10/08 09:48:38;;;;;;;1999.90;999.90;;;;;;;;;;6209621;23;20339;-80
2023/10/08 09:51:06;;;;;;;1999.90;999.90;;;;;;;;;;6210126;23;20024;-79
2023/10/08 09:53:39;;;;;;;1999.90;999.90;;;;;;;;;;6210525;23;20355;-78
2023/10/08 09:56:15;;;;;;;1999.90;999.90;;;;;;;;;;6210226;23;20048;-83
2023/10/08 09:58:43;;;;;;;1999.90;999.90;;;;;;;;;;6210385;23;20024;-81
2023/10/08 10:01:11;;;;;;;1999.90;999.90;;;;;;;;;;6210368;23;20024;-79
2023/10/08 10:03:39;;;;;;;1999.90;999.90;;;;;;;;;;6209885;23;20028;-80
2023/10/08 10:06:09;;;;;;;1999.90;999.90;;;;;;;;;;6210338;23;20020;-80
2023/10/08 10:08:36;;;;;;;1999.90;999.90;;;;;;;;;;6209996;23;20048;-79
2023/10/08 10:11:03;;;;;;;1999.90;999.90;;;;;;;;;;6209696;23;20028;-81
2023/10/08 10:13:30;;;;;;;1999.90;999.90;;;;;;;;;;6210471;23;20017;-80
2023/10/08 10:15:59;;;;;;;1999.90;999.90;;;;;;;;;;6209968;23;20020;-79
2023/10/08 10:18:29;;;;;;;1999.90;999.90;;;;;;;;;;6210044;23;20127;-79
2023/10/08 10:21:00;;;;;;;1999.90;999.90;;;;;;;;;;6210310;23;20037;-80
2023/10/08 10:23:37;;;;;;;1999.90;999.90;;;;;;;;;;6209849;23;20021;-79
2023/10/08 10:26:04;;;;;;;1999.90;999.90;;;;;;;;;;6210301;23;20021;-80
2023/10/08 10:28:31;;;;;;;1999.90;999.90;;;;;;;;;;6210160;23;20024;-82
2023/10/08 10:31:00;;;;;;;1999.90;999.90;;;;;;;;;;6209611;23;20031;-80
2023/10/08 10:33:31;;;;;;;1999.90;999.90;;;;;;;;;;6209843;23;20550;-81
2023/10/08 10:35:58;;;;;;;1999.90;999.90;;;;;;;;;;6210363;23;20021;-80
2023/10/08 10:38:26;;;;;;;1999.90;999.90;;;;;;;;;;6210103;23;20017;-78
2023/10/08 10:40:56;;;;;;;1999.90;999.90;;;;;;;;;;6211730;23;20028;-79
2023/10/08 10:43:31;;;;;;;1999.90;999.90;;;;;;;;;;6211706;23;20028;-82
2023/10/08 10:46:29;;;;;;;1999.90;999.90;;;;;;;;;;6211551;23;20471;-79
2023/10/08 10:49:05;;;;;;;1999.90;999.90;;;;;;;;;;6211785;23;20328;-79
2023/10/08 10:51:33;;;;;;;1999.90;999.90;;;;;;;;;;6211825;23;20021;-79
2023/10/08 10:54:07;;;;;;;1999.90;999.90;;;;;;;;;;6211430;23;20455;-78
2023/10/08 10:56:40;;;;;;;1999.90;999.90;;;;;;;;;;6211863;23;20407;-80
2023/10/08 10:59:15;;;;;;;1999.90;999.90;;;;;;;;;;6211909;23;20024;-78
2023/10/08 11:01:46;;;;;;;1999.90;999.90;;;;;;;;;;6211970;23;20079;-79
2023/10/08 11:04:15;;;;;;;1999.90;999.90;;;;;;;;;;6211655;23;20033;-78
2023/10/08 11:06:44;;;;;;;1999.90;999.90;;;;;;;;;;6211889;23;20059;-81
2023/10/08 11:09:16;;;;;;;1999.90;999.90;;;;;;;;;;6211960;23;20024;-81
2023/10/08 11:11:44;;;;;;;1999.90;999.90;;;;;;;;;;6211440;23;20068;-82
2023/10/08 11:14:15;;;;;;;1999.90;999.90;;;;;;;;;;6211859;23;20043;-80
2023/10/08 11:16:44;;;;;;;1999.90;999.90;;;;;;;;;;6211879;23;20027;-81
2023/10/08 11:19:15;;;;;;;1999.90;999.90;;;;;;;;;;6211450;23;20021;-80
2023/10/08 11:21:53;;;;;;;1999.90;999.90;;;;;;;;;;6211818;23;20463;-82
2023/10/08 11:24:29;;;;;;;1999.90;999.90;;;;;;;;;;6211627;23;20071;-81
2023/10/08 11:27:06;;;;;;;1999.90;999.90;;;;;;;;;;6211861;23;20071;-80
2023/10/08 11:29:33;;;;;;;1999.90;999.90;;;;;;;;;;6211713;23;20026;-79
2023/10/08 11:32:07;;;;;;;1999.90;999.90;;;;;;;;;;6211722;23;20125;-79
2023/10/08 11:34:38;;;;;;;1999.90;999.90;;;;;;;;;;6211742;23;20467;-79
2023/10/08 11:37:07;;;;;;;1999.90;999.90;;;;;;;;;;6211518;23;20384;-79
2023/10/08 11:39:45;;;;;;;1999.90;999.90;;;;;;;;;;6211087;23;20100;-79
2023/10/08 11:42:36;;;;;;;1999.90;999.90;;;;;;;;;;6211344;23;20027;-80
2023/10/08 11:45:17;;;;;;;1999.90;999.90;;;;;;;;;;6211819;23;20020;-79
2023/10/08 11:47:48;;;;;;;1999.90;999.90;;;;;;;;;;6211623;23;20031;-79
2023/10/08 11:50:17;;;;;;;1999.90;999.90;;;;;;;;;;6211270;23;20020;-79
2023/10/08 11:52:45;;;;;;;1999.90;999.90;;;;;;;;;;6211233;23;20391;-79
2023/10/08 11:55:18;;;;;;;1999.90;999.90;;;;;;;;;;6215155;23;20099;-81
2023/10/08 11:57:46;;;;;;;1999.90;999.90;;;;;;;;;;6218095;23;20036;-80
2023/10/08 12:00:18;;;;;;;1999.90;999.90;;;;;;;;;;6213727;23;20020;-79
2023/10/08 12:02:47;;;;;;;1999.90;999.90;;;;;;;;;;6211023;23;20020;-81
2023/10/08 12:05:18;;;;;;;1999.90;999.90;;;;;;;;;;6210922;23;20026;-79
2023/10/08 12:07:46;;;;;;;1999.90;999.90;;;;;;;;;;6211603;23;20017;-81
2023/10/08 12:10:13;;;;;;;1999.90;999.90;;;;;;;;;;6211175;23;20031;-80
2023/10/08 12:12:40;;;;;;;1999.90;999.90;;;;;;;;;;6210587;23;20351;-78
2023/10/08 12:15:09;;;;;;;1999.90;999.90;;;;;;;;;;6211283;23;20020;-78
2023/10/08 12:17:39;;;;;;;1999.90;999.90;;;;;;;;;;6211751;23;20082;-78
2023/10/08 12:20:22;;;;;;;1999.90;999.90;;;;;;;;;;6211611;23;20119;-78
2023/10/08 12:22:49;;;;;;;1999.90;999.90;;;;;;;;;;6211586;23;20023;-79
2023/10/08 12:25:16;;;;;;;1999.90;999.90;;;;;;;;;;6211476;23;20364;-79
2023/10/08 12:27:43;;;;;;;1999.90;999.90;;;;;;;;;;6211101;23;20538;-80
2023/10/08 12:30:10;;;;;;;1999.90;999.90;;;;;;;;;;6211621;23;20519;-80
2023/10/08 12:32:42;;;;;;;1999.90;999.90;;;;;;;;;;6211135;23;20025;-81
2023/10/08 12:35:12;;;;;;;1999.90;999.90;;;;;;;;;;6211125;23;20344;-80
2023/10/08 12:37:39;;;;;;;1999.90;999.90;;;;;;;;;;6211197;23;20027;-81
2023/10/08 12:40:12;;;;;;;1999.90;999.90;;;;;;;;;;6211388;23;20402;-80
2023/10/08 12:42:39;;;;;;;1999.90;999.90;;;;;;;;;;6211352;23;20029;-81
2023/10/08 12:45:12;;;;;;;1999.90;999.90;;;;;;;;;;6211490;23;20398;-80
2023/10/08 12:47:39;;;;;;;1999.90;999.90;;;;;;;;;;6211308;23;20020;-79
2023/10/08 12:50:07;;;;;;;1999.90;999.90;;;;;;;;;;6211431;23;20020;-79
2023/10/08 12:52:35;;;;;;;1999.90;999.90;;;;;;;;;;6211244;23;20194;-80
2023/10/08 12:55:03;;;;;;;1999.90;999.90;;;;;;;;;;6212567;23;20051;-80
2023/10/08 12:57:32;;;;;;;1999.90;999.90;;;;;;;;;;6211211;23;20363;-79
2023/10/08 12:59:59;;;;;;;1999.90;999.90;;;;;;;;;;6210661;23;20020;-79
2023/10/08 13:02:28;;;;;;;1999.90;999.90;;;;;;;;;;6210609;23;20367;-79
2023/10/08 13:04:54;;;;;;;1999.90;999.90;;;;;;;;;;6211070;23;20086;-77
2023/10/08 13:07:22;;;;;;;1999.90;999.90;;;;;;;;;;6210956;23;20021;-79
2023/10/08 13:09:50;;;;;;;1999.90;999.90;;;;;;;;;;6210119;23;20395;-79
2023/10/08 13:12:16;;;;;;;1999.90;999.90;;;;;;;;;;6208860;23;20452;-79
2023/10/08 13:14:44;;;;;;;1999.90;999.90;;;;;;;;;;6209172;23;20025;-79
2023/10/08 13:17:11;;;;;;;1999.90;999.90;;;;;;;;;;6210587;23;20023;-79
2023/10/08 13:19:38;;;;;;;1999.90;999.90;;;;;;;;;;6208928;23;20651;-81
2023/10/08 13:22:06;;;;;;;1999.90;999.90;;;;;;;;;;6210070;23;20032;-79
2023/10/08 13:24:35;;;;;;;1999.90;999.90;;;;;;;;;;6209996;23;20401;-80
2023/10/08 13:27:06;;;;;;;1999.90;999.90;;;;;;;;;;6210474;23;20111;-79
2023/10/08 13:29:33;;;;;;;1999.90;999.90;;;;;;;;;;6211979;23;20028;-81
2023/10/08 13:31:59;;;;;;;1999.90;999.90;;;;;;;;;;6212277;23;20021;-79
2023/10/08 13:34:26;;;;;;;1999.90;999.90;;;;;;;;;;6212700;23;20411;-79
2023/10/08 13:36:53;;;;;;;1999.90;999.90;;;;;;;;;;6211169;23;20522;-78
2023/10/08 13:39:21;;;;;;;1999.90;999.90;;;;;;;;;;6211657;23;20116;-80
2023/10/08 13:41:48;;;;;;;1999.90;999.90;;;;;;;;;;6212514;23;20028;-80
2023/10/08 13:44:18;;;;;;;1999.90;999.90;;;;;;;;;;6214466;23;20035;-81
2023/10/08 13:46:48;;;;;;;1999.90;999.90;;;;;;;;;;6210872;23;20032;-80
2023/10/08 13:49:16;;;;;;;1999.90;999.90;;;;;;;;;;6212101;23;20028;-81
2023/10/08 13:51:44;;;;;;;1999.90;999.90;;;;;;;;;;6211490;23;20020;-79
2023/10/08 13:54:10;;;;;;;1999.90;999.90;;;;;;;;;;6212208;23;20463;-79
2023/10/08 13:56:38;;;;;;;1999.90;999.90;;;;;;;;;;6211864;23;20024;-81
2023/10/08 13:59:11;;;;;;;1999.90;999.90;;;;;;;;;;6212635;23;20020;-78
2023/10/08 14:01:43;;;;;;;1999.90;999.90;;;;;;;;;;6212155;23;20024;-79
2023/10/08 14:04:10;;;;;;;1999.90;999.90;;;;;;;;;;6211773;23;20028;-79
2023/10/08 14:06:38;;;;;;;1999.90;999.90;;;;;;;;;;6211031;23;20035;-79
2023/10/08 14:09:08;;;;;;;1999.90;999.90;;;;;;;;;;6211255;23;20031;-80